Terminal Aerodrome Forecast
Issued by NWS Pittsburgh, PA

Current Version | Previous Version | Text Only | Print | Product List | Glossary On
Versions: 1 2 3 4 5 6 7 8 9 10 11 12 13 14 15 16 17 18 19 20 21 22 23 24 25 26 27
000
FTUS41 KPBZ 232320
TAFPIT
TAF
KPIT 232320Z 2400/2506 14008KT P6SM BKN120
     FM240900 09006KT P6SM -RA OVC050
     FM241500 12010G18KT 5SM -RA OVC015
     FM242100 12012G20KT P6SM OVC025
     FM250200 10005KT P6SM OVC040=

USA.gov is the U.S. government's official web portal to all federal, state and local government web resources and services.